Archival Weather

NSFA McMurdo Sound

NSFA McMurdo Sound, Antarctica (NZCM)

Report from: Friday, September 23, 2022 5:55 PM UTC
Current time: Sunday, December 4, 2022 11:56 AM UTC

Current weather
Weather history
Weather forecast

Temperature-16.8°C (1.8°F)
Wind chill-25.6°C (-14.0°F)
Dew point-21.8°C (-7.2°F)
Winds 9 kts (4.6 m/s, 10.4 mph) Vrb
Winds variableWinds variable from East (100°) to South (170°)
Visibility6.2 mi. (10 km)
Clouds Ceiling: Overcast 7,000 ft. (2,134 m)
Altimeter28.59 in.Hg (968 mB)
Relative humidity65 %
Density altitude-2,429 ft. (-740 m)
Sea-level pressure106.9 kPa (1069 mB, 31.56 in.Hg)
Max temp last 6 hours-16.7°C (1.9°F)
Min temp last 6 hours-20.3°C (-4.5°F)
Remarks Fully automated report
System requires maintenance
Automated weather observing station with precipitation discriminator
Pressure falling, then rising
Flight conditions Visual Meteorological Conditions
Raw dataNZCM 231755Z AUTO 14009KT 100V170 9999 OVC070 M17/M22 A2859 RMK AO2 SLP687 T11681218 11167 21203 55013 $
An error has occurred. This application may no longer respond until reloaded. Reload 🗙